• Join FlightAware (Why Join?)
  • Login
  • US Flag 
09:34PM EDT


 

Airport Tracker/Info


-or-


 

Live Flight TrackerFlight Track Log ✈ AAL1459 ✈ 12-May-2013 ✈ KORD - KRNO

Flight Track Log - Related Links

Times and Time Zones

All times are in EDT time to prevent confusion due to time zone crossing. See the AAL1459 flight status page for this flight to view local times or setup timezone preferences in your user account.

Time Position Orientation Groundspeed Altitude Reporting Facility
EDT Latitude Longitude Course Direction KTS MPH feet Rate Location/Type
06:34PM 41.9970 -87.9470 323° Northwest 152 175 1,700  Level FlightAware
06:34PM 42.0030 -87.9750 286° West 179 206 2,300 1,200 Climbing FlightAware
06:35PM 42.0090 -88.0040 286° West 207 238 2,800 1,500 Climbing FlightAware
06:35PM 42.0180 -88.0450 286° West 234 269 3,700 2,280 Climbing FlightAware
06:36PM 42.0260 -88.0820 286° West 238 274 4,900 2,400 Climbing FlightAware
06:36PM 42.0290 -88.1090 279° West 247 284 5,500 2,220 Climbing FlightAware
06:36PM 42.0280 -88.1470 268° West 252 290 6,600 2,520 Climbing FlightAware
06:37PM 42.0250 -88.1890 265° West 259 298 7,600 2,580 Climbing FlightAware
06:37PM 42.0210 -88.2380 264° West 261 300 9,000 2,640 Climbing FlightAware
06:38PM 42.0140 -88.3050 262° West 281 323 10,700 2,040 Climbing FlightAware
06:39PM 42.0040 -88.3660 258° West 313 360 11,600 1,860 Climbing FlightAware
06:39PM 41.9860 -88.4690 257° West 342 394 13,400 2,460 Climbing FlightAware
06:40PM 41.9720 -88.5530 257° West 349 402 15,300 2,880 Climbing FlightAware
06:41PM 41.9550 -88.6480 257° West 356 410 17,500 2,700 Climbing FlightAware
06:41PM 41.9390 -88.7330 256° West 360 414 19,200 2,460 Climbing FlightAware
06:42PM 41.9200 -88.8340 256° West 369 425 21,000 2,100 Climbing FlightAware
06:43PM 41.9030 -88.9240 256° West 382 440 22,200 1,860 Climbing FlightAware
06:44PM 41.8820 -89.0270 255° West 392 451 23,700 1,860 Climbing FlightAware
06:44PM 41.8630 -89.1230 255° West 400 460 24,900 1,680 Climbing FlightAware
06:45PM 41.8500 -89.2180 260° West 401 461 26,000 1,620 Climbing FlightAware
06:46PM 41.8380 -89.3190 261° West 407 468 27,100 1,440 Climbing FlightAware
06:46PM 41.8230 -89.4320 260° West 414 476 28,100 1,320 Climbing FlightAware
06:47PM 41.8100 -89.5350 260° West 422 486 29,000 1,260 Climbing FlightAware
06:48PM 41.7950 -89.6480 260° West 426 490 29,900 1,380 Climbing FlightAware
06:48PM 41.7820 -89.7510 260° West 423 487 31,000 1,620 Climbing FlightAware
06:49PM 41.7670 -89.8620 260° West 419 482 32,200 1,500 Climbing FlightAware
06:50PM 41.7540 -89.9590 260° West 415 478 33,200 1,260 Climbing FlightAware
06:51PM 41.7380 -90.0770 260° West 419 482 34,000 900 Climbing FlightAware
06:51PM 41.7240 -90.1840 260° West 427 491 34,500 780 Climbing FlightAware
06:52PM 41.7090 -90.2890 259° West 430 495 35,100 900 Climbing FlightAware
06:53PM 41.6930 -90.4010 259° West 430 495 35,800 720 Climbing FlightAware
06:53PM 41.6780 -90.5130 260° West 435 501 36,200 600 Climbing FlightAware
06:54PM 41.6610 -90.6320 259° West 439 505 36,700 720 Climbing FlightAware
06:55PM 41.6490 -90.7230 260° West 438 504 37,200 720 Climbing FlightAware
06:55PM 41.6320 -90.8390 259° West 438 504 37,700 480 Climbing FlightAware
06:56PM 41.6140 -90.9630 259° West 436 502 38,000 180 Climbing FlightAware
06:57PM 41.5990 -91.0690 259° West 432 497 38,000  Level FlightAware
06:58PM 41.5820 -91.1870 259° West 432 497 38,000  Level FlightAware
06:58PM 41.5690 -91.2720 258° West 432 497 38,000  Level FlightAware
06:59PM 41.5530 -91.3780 259° West 431 496 38,000  Level FlightAware
07:01PM 41.5110 -91.6740 259° West 435 501 38,000  Level FlightAware
07:02PM 41.4940 -91.8040 260° West 437 503 38,000  Level FlightAware
07:02PM 41.4810 -91.9030 260° West 436 502 38,000  Level FlightAware
07:03PM 41.4650 -92.0260 260° West 436 502 38,000  Level FlightAware
07:04PM 41.4510 -92.1290 260° West 436 502 38,000  Level FlightAware
07:04PM 41.4360 -92.2420 260° West 437 503 38,000  Level FlightAware
07:05PM 41.4240 -92.3300 260° West 437 503 38,000  Level FlightAware
07:06PM 41.4040 -92.4700 259° West 439 505 38,000  Level FlightAware
07:06PM 41.3920 -92.5610 260° West 439 505 38,000  Level FlightAware
07:07PM 41.3730 -92.6940 259° West 438 504 38,000  Level FlightAware
07:08PM 41.3570 -92.8110 260° West 438 504 38,000  Level FlightAware
07:09PM 41.3400 -92.9320 259° West 437 503 38,000  Level FlightAware
07:09PM 41.3250 -93.0370 259° West 440 506 38,000  Level FlightAware
07:10PM 41.3100 -93.1440 259° West 442 509 38,000  Level FlightAware
07:11PM 41.2920 -93.2620 259° West 444 511 38,000  Level FlightAware
07:11PM 41.2770 -93.3690 259° West 444 511 38,000  Level FlightAware
07:12PM 41.2590 -93.4940 259° West 446 513 38,000  Level FlightAware
07:13PM 41.2380 -93.6270 258° West 447 514 38,000  Level FlightAware
07:14PM 41.2240 -93.7180 258° West 447 514 38,000  Level FlightAware
07:14PM 41.2070 -93.8420 260° West 448 516 38,000  Level FlightAware
07:15PM 41.1900 -93.9570 259° West 447 514 38,000  Level FlightAware
07:16PM 41.1650 -94.1200 259° West 447 514 38,000  Level FlightAware
07:17PM 41.1500 -94.2140 258° West 447 514 38,000  Level FlightAware
07:17PM 41.1340 -94.3170 258° West 445 512 38,000  Level FlightAware
07:18PM 41.1170 -94.4260 258° West 445 512 38,000  Level FlightAware
07:19PM 41.1020 -94.5170 258° West 445 512 38,000  Level FlightAware
07:20PM 41.0840 -94.6300 258° West 445 512 38,000  Level FlightAware
07:20PM 41.0700 -94.7210 258° West 445 512 38,000  Level FlightAware
07:21PM 41.0550 -94.8120 258° West 445 512 38,000  Level FlightAware
07:22PM 41.0400 -94.9030 258° West 445 512 38,000  Level FlightAware
07:22PM 41.0260 -94.9930 258° West 445 512 38,000  Level FlightAware
07:23PM 41.0080 -95.1070 258° West 445 512 38,000  Level FlightAware
07:24PM 40.9930 -95.1970 258° West 445 512 38,000  Level FlightAware
07:24PM 40.9790 -95.2880 259° West 445 512 38,000  Level FlightAware
07:25PM 40.9640 -95.3790 258° West 445 512 38,000  Level FlightAware
07:26PM 40.9490 -95.4700 258° West 445 512 38,000  Level FlightAware
07:27PM 40.9310 -95.5830 258° West 445 512 38,000  Level FlightAware
07:27PM 40.9170 -95.6730 258° West 445 512 38,000  Level FlightAware
07:29PM 40.8550 -96.0330 257° West 38,000  Level FlightAware
07:30PM 40.8320 -96.1630 257° West 448 516 38,000  Level FlightAware
07:30PM 40.8170 -96.2540 258° West 448 516 38,000  Level FlightAware
07:31PM 40.8010 -96.3440 257° West 448 516 38,000  Level FlightAware
07:32PM 40.7850 -96.4350 257° West 448 516 38,000  Level FlightAware
07:33PM 40.7650 -96.5480 257° West 448 516 38,000  Level FlightAware
07:33PM 40.7490 -96.6390 257° West 448 516 38,000  Level FlightAware
07:34PM 40.7330 -96.7300 257° West 448 516 38,000  Level FlightAware
07:35PM 40.7170 -96.8200 257° West 448 516 38,000  Level FlightAware
07:35PM 40.7020 -96.9110 258° West 448 516 38,000  Level FlightAware
07:36PM 40.6820 -97.0240 257° West 448 516 38,000  Level FlightAware
07:37PM 40.6660 -97.1150 257° West 448 516 38,000  Level FlightAware
07:38PM 40.6020 -97.4540 256° West 38,000  Level FlightAware
07:38PM 40.5850 -97.5460 256° West 457 526 38,000  Level FlightAware
07:39PM 40.5620 -97.6710 256° West 457 526 38,000  Level FlightAware
07:40PM 40.5230 -97.8800 256° West 458 527 38,000  Level FlightAware
07:40PM 40.5050 -97.9720 256° West 458 527 38,000  Level FlightAware
07:41PM 40.4880 -98.0640 256° West 458 527 38,000  Level FlightAware
07:42PM 40.4700 -98.1560 256° West 458 527 38,000  Level FlightAware
07:42PM 40.4530 -98.2480 256° West 458 527 38,000  Level FlightAware
07:43PM 40.4310 -98.3630 256° West 458 527 38,000  Level FlightAware
07:44PM 40.4140 -98.4550 256° West 458 527 38,000  Level FlightAware
07:44PM 40.3960 -98.5460 255° West 458 527 38,000  Level FlightAware
07:45PM 40.3790 -98.6380 256° West 458 527 38,000  Level FlightAware
07:46PM 40.3610 -98.7300 256° West 458 527 38,000  Level FlightAware
07:47PM 40.3390 -98.8450 256° West 458 527 38,000  Level FlightAware
07:47PM 40.3220 -98.9360 256° West 458 527 38,000  Level FlightAware
07:48PM 40.3040 -99.0280 256° West 458 527 38,000  Level FlightAware
07:49PM 40.2870 -99.1200 256° West 458 527 38,000  Level FlightAware
07:49PM 40.5517 -99.4106 256° West 436 502 38,000  Level Minneapolis Center
07:50PM 40.5531 -99.4408 273° West 434 499 38,000  Level Denver Center
07:51PM 40.5583 -99.6311 272° West 432 497 38,000  Level Denver Center
07:52PM 40.5631 -99.7903 272° West 434 499 38,000  Level Denver Center
07:53PM 40.5669 -99.9556 272° West 434 499 38,000  Level Denver Center
07:54PM 40.5714 -100.1083 272° West 436 502 38,000  Level Denver Center
07:59PM 40.5904 -100.9830 272° West 431 496 38,000  Level FlightAware ADS-B
08:00PM 40.5918 -101.0620 271° West 434 499 38,000  Level FlightAware ADS-B
08:00PM 40.5930 -101.1440 271° West 434 499 38,000  Level FlightAware ADS-B
08:01PM 40.5943 -101.2230 271° West 433 498 38,000  Level FlightAware ADS-B
08:01PM 40.5954 -101.3020 271° West 432 497 38,000  Level FlightAware ADS-B
08:02PM 40.5966 -101.3840 271° West 432 497 38,000  Level FlightAware ADS-B
08:02PM 40.5977 -101.4630 271° West 432 497 38,000  Level FlightAware ADS-B
08:03PM 40.5988 -101.5430 271° West 432 497 38,000  Level FlightAware ADS-B
08:03PM 40.5997 -101.6230 271° West 432 497 38,000  Level FlightAware ADS-B
08:04PM 40.6007 -101.7020 271° West 433 498 38,000  Level FlightAware ADS-B
08:04PM 40.6015 -101.7830 271° West 434 499 38,000  Level FlightAware ADS-B
08:05PM 40.6023 -101.8660 271° West 435 501 38,000  Level FlightAware ADS-B
08:05PM 40.6030 -101.9460 271° West 436 502 38,000  Level FlightAware ADS-B
08:06PM 40.6037 -102.0260 271° West 436 502 38,000  Level FlightAware ADS-B
08:06PM 40.6045 -102.1060 271° West 435 501 38,000  Level FlightAware ADS-B
08:07PM 40.6051 -102.1850 271° West 435 501 38,000  Level FlightAware ADS-B
08:07PM 40.6057 -102.2650 271° West 435 501 38,000  Level FlightAware ADS-B
08:08PM 40.6061 -102.3460 270° West 435 501 38,000  Level FlightAware ADS-B
08:08PM 40.6066 -102.4270 270° West 436 502 38,000  Level FlightAware ADS-B
08:09PM 40.6069 -102.5070 270° West 437 503 38,000  Level FlightAware ADS-B
08:09PM 40.6071 -102.5900 270° West 438 504 38,000  Level FlightAware ADS-B
08:10PM 40.6074 -102.6700 270° West 439 505 38,000  Level FlightAware ADS-B
08:10PM 40.6076 -102.7520 270° West 441 507 38,000  Level FlightAware ADS-B
08:11PM 40.6078 -102.8340 270° West 442 509 38,000  Level FlightAware ADS-B
08:11PM 40.6079 -102.9180 270° West 443 510 38,000  Level FlightAware ADS-B
08:12PM 40.6079 -103.0220 270° West 444 511 38,000  Level FlightAware ADS-B
08:12PM 40.6078 -103.1030 270° West 444 511 38,000  Level FlightAware ADS-B
08:13PM 40.6078 -103.1850 270° West 444 511 38,000  Level FlightAware ADS-B
08:13PM 40.6075 -103.2660 270° West 444 511 38,000  Level FlightAware ADS-B
08:14PM 40.6073 -103.3540 270° West 444 511 38,000  Level FlightAware ADS-B
08:15PM 40.6070 -103.4520 270° West 443 510 38,000  Level FlightAware ADS-B
08:15PM 40.6067 -103.5350 270° West 442 509 38,000  Level FlightAware ADS-B
08:16PM 40.6062 -103.6160 270° West 440 506 38,000  Level FlightAware ADS-B
08:16PM 40.6058 -103.6960 270° West 439 505 38,000  Level FlightAware ADS-B
08:17PM 40.6053 -103.7760 270° West 440 506 38,000  Level FlightAware ADS-B
08:17PM 40.6047 -103.8620 270° West 439 505 38,000  Level FlightAware ADS-B
08:18PM 40.6040 -103.9440 269° West 440 506 38,000  Level FlightAware ADS-B
08:18PM 40.6034 -104.0260 269° West 441 507 38,000  Level FlightAware ADS-B
08:19PM 40.6027 -104.1060 269° West 442 509 38,000  Level FlightAware ADS-B
08:19PM 40.6019 -104.1870 269° West 442 509 38,000  Level FlightAware ADS-B
08:20PM 40.6010 -104.2690 269° West 444 511 38,000  Level FlightAware ADS-B
08:20PM 40.6000 -104.3510 269° West 445 512 38,000  Level FlightAware ADS-B
08:21PM 40.5990 -104.4330 269° West 446 513 38,000  Level FlightAware ADS-B
08:21PM 40.5980 -104.5150 269° West 448 516 38,000  Level FlightAware ADS-B
08:22PM 40.5970 -104.5990 269° West 449 517 38,000  Level FlightAware ADS-B
08:22PM 40.5959 -104.6820 269° West 450 518 38,000  Level FlightAware ADS-B
08:23PM 40.5945 -104.7650 269° West 451 519 38,000  Level FlightAware ADS-B
08:23PM 40.5932 -104.8510 269° West 452 520 38,000  Level FlightAware ADS-B
08:24PM 40.5915 -104.9480 269° West 452 520 38,000  Level FlightAware ADS-B
08:24PM 40.5901 -105.0310 269° West 451 519 38,000  Level FlightAware ADS-B
08:25PM 40.5887 -105.1140 269° West 451 519 38,000  Level FlightAware ADS-B
08:25PM 40.5872 -105.1970 269° West 450 518 38,000  Level FlightAware ADS-B
08:26PM 40.5855 -105.2800 268° West 448 516 38,000  Level FlightAware ADS-B
08:26PM 40.5837 -105.3660 268° West 445 512 38,000  Level FlightAware ADS-B
08:27PM 40.5820 -105.4470 268° West 445 512 38,000  Level FlightAware ADS-B
08:27PM 40.5801 -105.5330 268° West 444 511 38,000  Level FlightAware ADS-B
08:28PM 40.5770 -105.6580 268° West 443 510 38,000  Level FlightAware
08:29PM 40.5750 -105.7640 269° West 444 511 38,000  Level FlightAware
08:30PM 40.5720 -105.8900 268° West 446 513 38,000  Level FlightAware
08:30PM 40.5690 -105.9970 268° West 447 514 38,000  Level FlightAware
08:31PM 40.5660 -106.1040 268° West 447 514 38,000  Level FlightAware
08:32PM 40.5640 -106.1920 268° West 448 516 38,000  Level FlightAware
08:32PM 40.5600 -106.3340 268° West 448 516 38,000  Level FlightAware
08:33PM 40.5560 -106.4560 268° West 449 517 38,000  Level FlightAware
08:34PM 40.5540 -106.5420 268° West 449 517 38,000  Level FlightAware
08:35PM 40.5500 -106.6760 268° West 450 518 38,000  Level FlightAware
08:35PM 40.5460 -106.7820 267° West 450 518 38,000  Level FlightAware
08:36PM 40.5420 -106.9060 268° West 452 520 38,000  Level FlightAware
08:37PM 40.5370 -107.0410 267° West 452 520 38,000  Level FlightAware
08:38PM 40.5320 -107.1580 267° West 452 520 38,000  Level FlightAware
08:38PM 40.5290 -107.2650 268° West 453 521 38,000  Level FlightAware
08:39PM 40.5250 -107.3920 268° West 451 519 38,000  Level FlightAware
08:40PM 40.5210 -107.4890 267° West 450 518 38,000  Level FlightAware
08:40PM 40.5160 -107.6270 267° West 449 517 38,000  Level FlightAware
08:41PM 40.5100 -107.7530 266° West 448 516 38,000  Level FlightAware
08:42PM 40.5060 -107.8500 267° West 447 514 38,000  Level FlightAware
08:43PM 40.5010 -107.9800 267° West 444 511 38,000  Level FlightAware
08:43PM 40.5090 -108.0820 276° West 439 505 38,000  Level FlightAware
08:44PM 40.5190 -108.1790 278° West 439 505 38,000  Level FlightAware
08:45PM 40.5330 -108.3180 278° West 438 504 38,000  Level FlightAware
08:45PM 40.5430 -108.4160 278° West 436 502 38,000  Level FlightAware
08:46PM 40.5530 -108.5180 277° West 435 501 38,000  Level FlightAware
08:47PM 40.5650 -108.6350 278° West 435 501 38,000  Level FlightAware
08:47PM 40.5760 -108.7410 278° West 436 502 38,000  Level FlightAware
08:48PM 40.5880 -108.8680 277° West 438 504 38,000  Level FlightAware
08:49PM 40.6020 -109.0050 278° West 440 506 38,000  Level FlightAware
08:50PM 40.6200 -109.1910 277° West 443 510 38,000  Level FlightAware
08:51PM 40.6330 -109.3320 277° West 444 511 38,000  Level FlightAware
08:52PM 40.6440 -109.4550 277° West 443 510 38,000  Level FlightAware
08:53PM 40.6530 -109.5470 277° West 443 510 38,000  Level FlightAware
08:53PM 40.6610 -109.6380 277° West 443 510 38,000  Level FlightAware
08:54PM 40.6700 -109.7290 277° West 443 510 38,000  Level FlightAware
08:55PM 40.6850 -109.9010 277° West 439 505 38,000  Level FlightAware
08:55PM 40.6930 -109.9970 276° West 437 503 38,000  Level FlightAware
08:56PM 40.7040 -110.1190 277° West 435 501 38,000  Level FlightAware
08:57PM 40.7160 -110.2590 276° West 433 498 38,000  Level FlightAware
08:58PM 40.7250 -110.3630 277° West 433 498 38,000  Level FlightAware
08:58PM 40.7350 -110.4860 276° West 432 497 38,000  Level FlightAware
08:59PM 40.7440 -110.5990 276° West 432 497 38,000  Level FlightAware
09:00PM 40.7510 -110.6840 276° West 432 497 38,000  Level FlightAware
09:00PM 40.7620 -110.8130 276° West 431 496 38,000  Level FlightAware
09:02PM 40.7760 -110.9930 276° West 433 498 38,000  Level FlightAware
09:02PM 40.7850 -111.1070 276° West 435 501 38,000  Level FlightAware
09:03PM 40.7950 -111.2290 276° West 437 503 38,000  Level FlightAware
09:04PM 40.8020 -111.3230 276° West 437 503 38,000  Level FlightAware
09:05PM 40.8140 -111.4840 276° West 435 501 38,000  Level FlightAware
09:05PM 40.8220 -111.5950 275° West 434 499 38,000  Level FlightAware
09:06PM 40.8300 -111.7040 276° West 433 498 38,000  Level FlightAware
09:07PM 40.8390 -111.8210 276° West 433 498 38,000  Level FlightAware
09:07PM 40.8460 -111.9280 275° West 431 496 38,000  Level FlightAware
09:08PM 40.8450 -112.0730 270° West 438 504 38,000  Level FlightAware
09:09PM 40.8370 -112.1950 265° West 438 504 38,000  Level FlightAware
09:10PM 40.8300 -112.3000 265° West 439 505 38,000  Level FlightAware
09:10PM 40.8230 -112.4070 265° West 440 506 38,000  Level FlightAware
09:11PM 40.8150 -112.5230 265° West 439 505 38,000  Level FlightAware
09:12PM 40.8080 -112.6300 265° West 440 506 38,000  Level FlightAware
09:13PM 40.7990 -112.7710 265° West 440 506 38,000  Level FlightAware
09:13PM 40.7930 -112.8620 265° West 440 506 38,000  Level FlightAware
09:14PM 40.7860 -112.9530 264° West 440 506 38,000  Level FlightAware
09:15PM 40.7790 -113.0660 265° West 440 506 38,000  Level FlightAware
09:16PM 40.7730 -113.1580 265° West 440 506 38,000  Level FlightAware
09:16PM 40.7670 -113.2490 265° West 440 506 38,000  Level FlightAware
09:17PM 40.7610 -113.3400 265° West 440 506 38,000  Level FlightAware
09:18PM 40.7550 -113.4310 265° West 440 506 38,000  Level FlightAware
09:18PM 40.7470 -113.5440 265° West 440 506 38,000  Level FlightAware
09:19PM 40.7410 -113.6350 265° West 440 506 38,000  Level FlightAware
09:20PM 40.7350 -113.7260 265° West 440 506 38,000  Level FlightAware
09:20PM 40.7290 -113.8170 265° West 440 506 38,000  Level FlightAware
09:21PM 40.7230 -113.9080 265° West 440 506 38,000  Level FlightAware
09:22PM 40.7170 -113.9990 265° West 440 506 38,000  Level FlightAware
09:22PM 40.7075 -114.2683 265° West 435 501 38,000  Level Salt Lake Center
09:23PM 40.7006 -114.4275 267° West 435 501 38,000  Level Salt Lake Center
09:24PM 40.6950 -114.5856 267° West 434 499 38,000  Level Salt Lake Center
09:25PM 40.6892 -114.7433 267° West 433 498 38,000  Level Salt Lake Center
09:26PM 40.6792 -114.9044 265° West 430 495 38,000  Level Salt Lake Center
09:27PM 40.6592 -115.0536 260° West 431 496 38,000  Level Salt Lake Center
09:28PM 40.6325 -115.2283 259° West 435 501 38,000  Level Salt Lake Center
09:29PM 40.6117 -115.3764 260° West 433 498 38,000  Level Salt Lake Center
09:30PM 40.5872 -115.5522 260° West 437 503 38,000  Level Salt Lake Center
09:31PM 40.5672 -115.7019 260° West 435 501 38,000  Level Salt Lake Center
09:32PM 40.5458 -115.8517 259° West 436 502 38,000  Level Salt Lake Center
09:33PM 40.5214 -116.0242 259° West 432 497 38,000  Level Salt Lake Center
09:34PM 40.4994 -116.1717 259° West 430 495 38,000  Level Salt Lake Center
09:35PM 40.4753 -116.3422 260° West 427 491 38,000  Level Salt Lake Center
09:36PM 40.4533 -116.4897 259° West 428 493 38,000  Level Salt Lake Center
09:37PM 40.4308 -116.6342 258° West 425 489 38,000  Level Salt Lake Center
09:39PM 40.4044 -116.8008 258° West 425 489 38,000  Level Salt Lake Center
09:40PM 40.3794 -116.9544 258° West 430 495 38,000  Level Salt Lake Center
09:41PM 40.3556 -117.1122 259° West 433 498 38,000 -120 Level Salt Lake Center
09:42PM 40.3317 -117.2583 258° West 428 493 37,800 -660 Descending Salt Lake Center
09:43PM 40.3039 -117.4267 258° West 425 489 36,700 -1,020 Descending Salt Lake Center
09:44PM 40.2797 -117.5739 258° West 429 494 35,800 -1,020 Descending Salt Lake Center
09:45PM 40.2514 -117.7472 258° West 436 502 34,700 -1,020 Descending Salt Lake Center
09:46PM 40.2269 -117.8956 258° West 436 502 33,800 -900 Descending Salt Lake Center
09:47PM 40.2017 -118.0428 257° West 435 501 32,900 -1,020 Descending Salt Lake Center
09:48PM 40.1731 -118.2142 258° West 432 497 31,800 -1,260 Descending Salt Lake Center
09:49PM 40.1475 -118.3600 257° West 431 496 30,400 -2,040 Descending Salt Lake Center
09:50PM 40.1194 -118.5272 258° West 424 488 27,700 -2,340 Descending Salt Lake Center
09:51PM 40.0964 -118.6558 257° West 414 476 25,700 -2,100 Descending Salt Lake Center
09:52PM 40.0714 -118.7950 257° West 400 460 23,400 -2,400 Descending Salt Lake Center
09:53PM 40.0431 -118.9581 257° West 388 447 20,800 -2,400 Descending Salt Lake Center
09:54PM 40.0192 -119.0886 257° West 377 434 18,600 -2,100 Descending Salt Lake Center
09:55PM 39.9964 -119.2144 257° West 363 418 16,600 -1,320 Descending Salt Lake Center
09:56PM 39.9742 -119.3389 257° West 356 410 16,000 -1,320 Descending Salt Lake Center
09:57PM 39.9525 -119.4633 257° West 354 407 14,000 -1,980 Descending Salt Lake Center
09:58PM 39.9342 -119.5869 259° West 351 404 12,000 -1,080 Descending Salt Lake Center
10:03PM 39.6780 -119.7680 259° West 193 222 7,400 -900 Descending FlightAware